Aérodrome :
LOGIN :

S'inscrire | Disclaimer

   EN    FR    IT 

 










Légende :    VFR   VFR Marginal   IFR   IFR Intensif   IFR Très Intensif
Visi : 
Plafond : 
>= 8 km
>= 3000ft
5 à 8 km
1000 à 3000 ft
1500m à 5 km
500 à 1000 ft
800 à 1500m
200 à 500 ft
< 800m
< 200 ft
Symboles :   Orages  Brouillard  Fortes neiges  Fortes précipitations  Vent > 20 kt
SIGMETs :   Divers  Orages  Givrage  Turbulence  Onde Orograph.  Cendres Volcan.






- Altitude de l'aérodrome : 465 ft
- Code IATA : LEJ


EDDP - Leipzig Halle

DERNIER METAR :
  • 221720Z 25010KT 4500 BR FEW005 OVC020 02/01 Q1033 TEMPO 5000 BKN005

METARs EXPIRÉS :
  • 221650Z 25008KT 4500 BR SCT005 OVC020 02/01 Q1033 TEMPO 5000 BKN005
  • 221620Z 25009KT 3500 BR BKN003 OVC020 02/01 Q1033 TEMPO SCT003 BKN005
  • 221550Z 25009KT 2500 BR BKN003 02/01 Q1033 TEMPO 3000 BR SCT002 BKN005
  • 221520Z 24008KT 1600 BR BKN002 02/02 Q1032 TEMPO 3000 BR SCT002 BKN005
  • 221450Z 24009KT 1500 BR BKN002 02/02 Q1032 TEMPO 3000 BR SCT002 BKN005

TAF TAF EDDP
Valide du 22 à 18h jusqu'au 23 à 18h UTC


221700Z 2218/2318 25006KT 6000 BKN015
PROB30
TEMPO 2218/2308 2500 BR BKN004
BECMG 2304/2308 19004KT BKN012
BECMG 2308/2312 BKN025



MET'MAP, la Météo Aéronautique d'un coup d'oeil ! - Copyright ORBIFLY Décembre 2007 - Disclaimer

ORBIFLY MET'MAP TEAM :

Programmation & Développement : Alexandra Zaïnal
Sur une idée originale de : Baudouin d'Aumeries
Assistance à la programmation : Marc-Olivier Méhu
Soutien technique & logistique : Manuel Goepfert

Contact : metmap@orbifly.com




SOURCES & CREDITS :

   NOAA